createdAt,value
2023-03-23T15:57:53.805Z,98391.44
2023-03-23T16:00:24.494Z,98397.06
2023-03-23T16:02:57.043Z,98402.06
2023-03-23T16:05:26.606Z,98388.41
2023-03-23T16:07:56.058Z,98381.78
2023-03-23T16:10:26.053Z,98375.81
2023-03-23T16:12:54.276Z,98370.00
2023-03-23T16:15:22.422Z,98368.34
2023-03-23T16:17:50.709Z,98364.28
2023-03-23T16:20:37.311Z,98369.75
2023-03-23T16:23:05.373Z,98362.56
2023-03-23T16:25:33.417Z,98357.28
2023-03-23T16:28:02.249Z,98363.06
2023-03-23T16:30:34.302Z,98360.78
2023-03-23T16:33:02.453Z,98353.47
2023-03-23T16:35:30.731Z,98359.94
2023-03-23T16:38:08.122Z,98358.44
2023-03-23T16:40:38.072Z,98356.88
2023-03-23T16:43:08.250Z,98344.56
2023-03-23T16:45:38.477Z,98347.47
2023-03-23T16:48:08.131Z,98338.94
2023-03-23T16:50:37.034Z,98349.44
2023-03-23T16:53:08.400Z,98347.25
2023-03-23T16:55:37.124Z,98344.59
2023-03-23T16:58:16.411Z,98342.81
2023-03-23T17:00:48.818Z,98349.31
2023-03-23T17:03:17.781Z,98350.38
2023-03-23T17:05:46.792Z,98356.09
2023-03-23T17:08:17.254Z,98343.25
2023-03-23T17:10:45.314Z,98358.31
2023-03-23T17:13:13.761Z,98362.44
2023-03-23T17:15:46.028Z,98349.09
2023-03-23T17:18:16.426Z,98349.34
2023-03-23T17:20:44.567Z,98348.56
2023-03-23T17:23:12.921Z,98349.28
2023-03-23T17:25:43.153Z,98344.81
2023-03-23T17:28:11.398Z,98348.31
2023-03-23T17:30:43.278Z,98341.31
2023-03-23T17:33:11.898Z,98345.22
2023-03-23T17:35:43.080Z,98348.50
2023-03-23T17:38:11.395Z,98345.97
2023-03-23T17:40:39.683Z,98340.25
2023-03-23T17:43:09.130Z,98344.50
2023-03-23T17:45:37.572Z,98342.44
2023-03-23T17:48:08.090Z,98340.44
2023-03-23T17:50:36.767Z,98333.97
2023-03-23T17:53:05.520Z,98334.22
2023-03-23T17:55:33.815Z,98323.25
2023-03-23T17:58:05.191Z,98329.50
2023-03-23T18:00:35.051Z,98321.94
2023-03-23T18:03:03.091Z,98309.19
2023-03-23T18:05:32.054Z,98311.94
2023-03-23T18:08:00.123Z,98318.03
2023-03-23T18:10:28.309Z,98305.28
2023-03-23T18:12:56.354Z,98324.34
2023-03-23T18:15:28.396Z,98318.47
2023-03-23T18:17:58.756Z,98318.72
2023-03-23T18:20:27.709Z,98315.56
2023-03-23T18:22:55.866Z,98308.88
2023-03-23T18:25:23.868Z,98311.69
2023-03-23T18:27:52.004Z,98315.25
2023-03-23T18:30:20.095Z,98314.53
2023-03-23T18:32:48.192Z,98312.88
2023-03-23T18:35:17.662Z,98307.91
2023-03-23T18:37:47.911Z,98310.66
2023-03-23T18:40:17.480Z,98301.38
2023-03-23T18:42:46.015Z,98292.94
2023-03-23T18:45:16.688Z,98295.66
2023-03-23T18:47:45.789Z,98295.75
2023-03-23T18:50:13.916Z,98293.25
2023-03-23T18:52:43.313Z,98293.31
2023-03-23T18:55:11.491Z,98295.00
2023-03-23T18:57:40.594Z,98299.31
2023-03-23T19:00:11.175Z,98302.84
2023-03-23T19:02:40.153Z,98303.78
2023-03-23T19:05:08.884Z,98302.97
2023-03-23T19:07:38.337Z,98319.31
2023-03-23T19:10:09.543Z,98323.63
2023-03-23T19:12:37.514Z,98390.47
2023-03-23T19:15:06.806Z,98400.75
2023-03-23T19:17:34.843Z,98402.94
2023-03-23T19:20:03.062Z,98404.03
2023-03-23T19:22:31.227Z,98394.00
2023-03-23T19:24:59.280Z,98384.91
2023-03-23T19:27:28.697Z,98356.84
2023-03-23T19:29:56.924Z,98382.88
2023-03-23T19:32:24.969Z,98393.31
2023-03-23T19:34:53.094Z,98404.53
2023-03-23T19:37:21.266Z,98385.94
2023-03-23T19:39:49.294Z,98387.00
2023-03-23T19:42:18.574Z,98378.72
2023-03-23T19:44:48.506Z,98382.34
2023-03-23T19:47:16.733Z,98368.78
2023-03-23T19:49:45.092Z,98370.56
2023-03-23T19:52:14.959Z,98379.97
2023-03-23T19:54:46.073Z,98369.72
2023-03-23T19:57:14.493Z,98368.84
2023-03-23T19:59:42.773Z,98374.78
2023-03-23T20:02:13.703Z,98374.69
2023-03-23T20:04:43.516Z,98378.00
2023-03-23T20:07:12.829Z,98383.09
2023-03-23T20:09:40.986Z,98381.31
2023-03-23T20:12:09.715Z,98388.13
2023-03-23T20:14:38.346Z,98402.69
2023-03-23T20:17:09.826Z,98413.00
2023-03-23T20:19:40.365Z,98406.22
2023-03-23T20:22:08.626Z,98414.84
2023-03-23T20:24:38.176Z,98416.59
2023-03-23T20:27:08.085Z,98417.53
2023-03-23T20:29:36.279Z,98416.72
2023-03-23T20:32:04.668Z,98427.88
2023-03-23T20:34:32.754Z,98411.66
2023-03-23T20:37:17.800Z,98409.13
2023-03-23T20:39:46.571Z,98411.69
2023-03-23T20:42:14.847Z,98411.75
2023-03-23T20:44:43.013Z,98400.66
2023-03-23T20:47:12.276Z,98406.66
2023-03-23T20:49:41.846Z,98404.94
2023-03-23T20:52:12.048Z,98399.81
2023-03-23T20:54:42.383Z,98400.69
2023-03-23T20:57:11.214Z,98397.28
2023-03-23T20:59:39.198Z,98398.16
2023-03-23T21:02:07.991Z,98400.72
2023-03-23T21:04:37.381Z,98399.88
2023-03-23T21:07:05.917Z,98407.59
2023-03-23T21:09:34.120Z,98400.75
2023-03-23T21:12:06.251Z,98398.19
2023-03-23T21:14:38.995Z,98416.97
2023-03-23T21:17:10.408Z,98411.88
2023-03-23T21:19:50.968Z,98420.41
2023-03-23T21:22:19.703Z,98411.88
2023-03-23T21:24:50.540Z,98421.28
2023-03-23T21:27:22.309Z,98417.00
2023-03-23T21:29:51.523Z,98423.03
2023-03-23T21:32:19.536Z,98418.75
2023-03-23T21:34:50.094Z,98426.41
2023-03-23T21:37:18.146Z,98423.00
2023-03-23T21:39:46.665Z,98428.16
2023-03-23T21:42:14.804Z,98423.00
2023-03-23T21:44:44.517Z,98436.69
2023-03-23T21:47:12.957Z,98440.09
2023-03-23T21:49:41.384Z,98435.81
2023-03-23T21:52:09.456Z,98424.75
2023-03-23T21:54:37.736Z,98434.16
2023-03-23T21:57:06.013Z,98439.28
2023-03-23T21:59:34.515Z,98433.28
2023-03-23T22:02:04.124Z,98450.38
2023-03-23T22:04:33.036Z,98440.13
2023-03-23T22:07:01.344Z,98451.22
2023-03-23T22:09:39.910Z,98446.97
2023-03-23T22:12:08.116Z,98452.94
2023-03-23T22:14:38.717Z,98454.66
2023-03-23T22:17:08.980Z,98469.19
2023-03-23T22:19:37.463Z,98455.50
2023-03-23T22:22:06.261Z,98465.78
2023-03-23T22:24:34.284Z,98459.75
2023-03-23T22:27:02.382Z,98464.03
2023-03-23T22:29:30.483Z,98463.19
2023-03-23T22:31:58.560Z,98466.63
2023-03-23T22:34:42.936Z,98464.03
2023-03-23T22:37:11.871Z,98470.88
2023-03-23T22:39:40.033Z,98476.00
2023-03-23T22:42:08.157Z,98480.28
2023-03-23T22:44:36.505Z,98476.03
2023-03-23T22:47:04.639Z,98483.69
2023-03-23T22:49:34.276Z,98502.50
2023-03-23T22:52:04.785Z,98490.50
2023-03-23T22:54:33.274Z,98487.13
2023-03-23T22:57:01.340Z,98498.19
2023-03-23T22:59:29.419Z,98488.81
2023-03-23T23:01:57.515Z,98501.63
2023-03-23T23:04:25.676Z,98503.34
2023-03-23T23:07:06.722Z,98513.59
2023-03-23T23:09:40.343Z,98513.59
2023-03-23T23:12:08.710Z,98502.50
2023-03-23T23:14:37.568Z,98507.59
2023-03-23T23:17:05.783Z,98517.84
2023-03-23T23:19:34.846Z,98507.63
2023-03-23T23:22:17.958Z,98518.72
2023-03-23T23:24:47.262Z,98526.41
2023-03-23T23:27:15.869Z,98533.22
2023-03-23T23:29:44.933Z,98529.81
2023-03-23T23:32:13.131Z,98536.66
2023-03-23T23:34:41.346Z,98537.50
2023-03-23T23:37:10.772Z,98544.31
2023-03-23T23:39:41.383Z,98534.06
2023-03-23T23:42:09.578Z,98534.09
2023-03-23T23:44:38.537Z,98532.38
2023-03-23T23:47:08.433Z,98532.38
2023-03-23T23:49:36.502Z,98546.88
2023-03-23T23:52:07.074Z,98541.75
2023-03-23T23:54:37.502Z,98544.34
2023-03-23T23:57:06.667Z,98560.53
2023-03-23T23:59:34.793Z,98549.44
